Manor, Delaware
Current Conditions -  °F | °C
As of 7:51 AM on Friday 24 Oct 2014 (Local Time) from KILG Reporting Station
Scattered Clouds Scattered Clouds  
Wind Chill: 57°   Ceiling: Unl
Heat Index: 57°   Visibility: 10mi
Dew Point: 46°   Wind: 15mph
Humidity: 67%   Direction: 320°NW
Pressure: 29.87"   Gusts: NA
Location:  39.6483°N, 75.6041°W
Report Text: KILG 241151Z 32013KT 10SM SCT035 14/08 A2987 RMK AO2 SLP113 70001 T01390078 10139 20122 50004
Loading
Personal Weather Stations






























Interactive Weather Map
Tropical Storm Tracking
New forecast layout! Learn more

10-Day Weather Forecast

Advertisements
Track Severe Weather on mobile